FNUE

Details ICAO FNUE (LUO)
Name LUENA
Region Angola
Timezone Africa/Luanda (UTC+1.0)
Plans Departing 9
Arriving 8
Stats Elevation 4,360 ft / 1,329 m (AMSL)
Location -11.768086° 19.897672°
Runways 1
Magnetic Variation 2.887° W
Sunrise 2018-05-21 04:52:20 UTC / 2018-05-21 05:52:20 Local
Sunset 2018-05-21 16:24:31 UTC / 2018-05-21 17:24:31 Local
Advertisement - Login to hide

Runways

ID Width Length Bearing (true) Bearing (mag) Surface Threshold Offset Overrun Length
11 130 ft / 40 m 7,889 ft / 2,405 m 104.18° 107.07° Asphalt 0 ft / 0 m 0 ft / 0 m
29 130 ft / 40 m 7,889 ft / 2,405 m 284.17° 287.06° Asphalt 0 ft / 0 m 0 ft / 0 m

Map

Weather


0- 5 10 15 20 25 30 35+ Temperature / ° C

Clouds and Precipitation
Forecast for 2018-05-21 12:00 UTC. Updated 35 minutes ago

Ground ~20,000 ft ~40,000 ft Winds

METAR

FNUE 211100Z 11008KT CAVOK 26/12 Q1019

TAF

TAF FNUE 211100Z 2112/2124 09005KT 9999 BKN050 TEMPO 2116/2120 VRB03KT SCT025 TEMPO 2120/2124 CAVOK

Frequencies

Tower 118.10 MHz AFIS
Warning: Do not use this data for real-world aviation or navigation. No guarantee of current accuracy is given.